ルクソール の空港の天気 - METARとTAF

ルクソール国際空港 ( HELX / LXR ) - エジプト ルクソール
飛行場実況気象(Metar)
観測時間01/23 07:00 EET (01/23 05:00 UTC)
風向・風速東 1m/s
視程6000m
天気現象
なし
気温11℃
湿度62%
気圧1017hPa
METARHELX 230500Z 10002KT 6000 NSC 11/04 Q1017 NOSIG
過去の天気等 Google飛行場航空写真 Wunderground天気予報

過去48時間のMETAR

飛行場予報(TAF)
発表時間: 1/23 07:00 EET (1/23 05:00 UTC)
予報対象時間: 23日8時 EET ~ 24日14時 EET
風向・風速西北西 5m/s 瞬間風速 10m/s
視程10km以上
なし
23日8時 EET ~ 23日14時 EET に一時的に
視程3,000m
天気現象砂塵
なし
TAF HELX 230500Z 2306/2412 30010G20KT CAVOK
TEMPO 2306/2312 3000 SA NSC